Time;durP1;ratioP1;P1;durP2;ratioP2;P2;SDS_P1;SDS_P2;PMS_P1;PMS_P2;Temp;Humidity;BMP_temperature;BMP_pressure;BME280_temperature;BME280_humidity;BME280_pressure;Samples;Min_cycle;Max_cycle;Signal;HPM_P1;HPM_P2
2022/12/07 00:01:15;;;;;;;23.63;11.73;;;;;;;41.10;38.40;100983.06;6275146;22;20500;-75
2022/12/07 00:03:43;;;;;;;25.90;13.07;;;;;;;41.16;38.26;100981.78;6275463;22;20389;-74
2022/12/07 00:06:12;;;;;;;20.40;14.57;;;;;;;41.24;38.44;100978.22;6275319;22;20389;-74
2022/12/07 00:08:38;;;;;;;19.80;13.83;;;;;;;41.27;38.45;100969.41;6277104;22;20429;-74
2022/12/07 00:11:10;;;;;;;19.13;11.17;;;;;;;41.20;38.68;100972.63;6275200;22;20473;-74
2022/12/07 00:13:37;;;;;;;24.77;14.50;;;;;;;40.87;38.85;100975.09;6275101;22;20436;-74
2022/12/07 00:16:05;;;;;;;16.10;11.23;;;;;;;41.36;37.91;100963.94;6275056;22;20385;-74
2022/12/07 00:18:31;;;;;;;23.60;14.77;;;;;;;41.29;38.12;100954.34;6274985;22;20471;-74
2022/12/07 00:21:13;;;;;;;25.67;13.87;;;;;;;41.22;38.34;100964.94;6275112;22;20386;-74
2022/12/07 00:23:40;;;;;;;28.47;14.47;;;;;;;41.51;37.65;100960.69;6275142;22;20400;-74
2022/12/07 00:26:13;;;;;;;20.93;12.37;;;;;;;41.65;37.22;100963.94;6274760;22;20443;-74
2022/12/07 00:28:39;;;;;;;26.50;14.13;;;;;;;41.03;38.11;100957.16;6275031;22;20511;-74
2022/12/07 00:31:08;;;;;;;25.90;14.80;;;;;;;41.38;37.61;100957.06;6274961;22;20780;-74
2022/12/07 00:33:35;;;;;;;22.70;13.00;;;;;;;41.76;37.02;100956.22;6249472;22;20842;-74
2022/12/07 00:36:04;;;;;;;21.13;13.53;;;;;;;41.73;37.20;100946.75;6274986;22;20406;-74
2022/12/07 00:38:33;;;;;;;23.77;14.03;;;;;;;41.53;37.44;100947.53;6274889;22;20837;-74
2022/12/07 00:41:04;;;;;;;24.63;13.07;;;;;;;41.42;37.83;100940.84;6274725;22;20935;-74
2022/12/07 00:43:30;;;;;;;31.87;14.63;;;;;;;41.67;37.54;100933.66;6274935;22;20483;-74
2022/12/07 00:45:56;;;;;;;31.90;13.90;;;;;;;41.11;38.34;100930.25;6274901;22;20577;-74
2022/12/07 00:48:23;;;;;;;24.07;13.60;;;;;;;41.51;37.91;100926.06;6249575;22;20428;-74
2022/12/07 00:50:50;;;;;;;24.47;13.77;;;;;;;41.48;37.90;100924.00;6276750;22;20661;-74
2022/12/07 00:53:16;;;;;;;28.37;12.23;;;;;;;41.67;37.29;100923.53;6276786;22;20477;-74
2022/12/07 00:55:44;;;;;;;25.63;15.80;;;;;;;41.55;37.48;100929.72;6276290;22;20393;-74
2022/12/07 00:58:10;;;;;;;24.73;13.83;;;;;;;41.70;37.67;100933.78;6274812;22;20378;-74
2022/12/07 01:00:38;;;;;;;22.43;14.80;;;;;;;41.65;37.65;100922.28;6274684;22;20413;-74
2022/12/07 01:03:05;;;;;;;27.17;11.53;;;;;;;41.51;37.62;100928.00;6274934;22;20873;-74
2022/12/07 01:05:31;;;;;;;16.83;14.33;;;;;;;41.33;37.97;100921.84;6274642;22;20701;-75
2022/12/07 01:07:57;;;;;;;18.63;12.30;;;;;;;41.48;37.34;100915.03;6274379;22;20432;-74
2022/12/07 01:10:23;;;;;;;23.40;13.30;;;;;;;41.17;38.21;100918.84;6274765;22;20151;-74
2022/12/07 01:12:49;;;;;;;27.47;14.40;;;;;;;40.95;38.14;100917.19;6274515;22;20385;-73
2022/12/07 01:15:15;;;;;;;19.97;14.00;;;;;;;41.04;38.54;100917.94;6274388;22;20843;-76
2022/12/07 01:17:41;;;;;;;21.50;11.70;;;;;;;41.43;37.79;100916.00;6274591;22;20460;-75
2022/12/07 01:20:07;;;;;;;30.23;15.53;;;;;;;40.99;38.56;100912.69;6274413;22;20472;-75
2022/12/07 01:22:38;;;;;;;24.43;12.00;;;;;;;41.13;38.12;100917.94;6274658;22;20401;-75
2022/12/07 01:25:05;;;;;;;21.13;12.60;;;;;;;40.79;38.81;100911.44;6274473;22;20867;-75
2022/12/07 01:27:33;;;;;;;19.00;12.57;;;;;;;40.47;39.26;100906.56;6274430;22;20406;-75
2022/12/07 01:30:00;;;;;;;17.83;14.70;;;;;;;40.33;39.83;100904.03;6274544;22;20381;-75
2022/12/07 01:32:26;;;;;;;25.60;17.93;;;;;;;40.57;39.44;100892.63;6274148;22;20381;-74
2022/12/07 01:34:52;;;;;;;18.27;11.80;;;;;;;40.93;39.00;100900.38;6276505;22;20363;-74
2022/12/07 01:37:18;;;;;;;25.33;14.37;;;;;;;40.88;39.12;100899.72;6274230;22;20382;-73
2022/12/07 01:39:44;;;;;;;35.93;15.47;;;;;;;40.37;39.71;100893.28;6274349;22;20747;-75
2022/12/07 01:42:11;;;;;;;24.53;14.27;;;;;;;40.53;39.15;100889.78;6274248;22;20925;-75
2022/12/07 01:45:31;;;;;;;22.60;12.80;;;;;;;41.10;38.69;100890.56;6274196;22;20208;-75
2022/12/07 01:47:58;;;;;;;16.87;13.77;;;;;;;40.96;38.34;100880.69;6127872;23;20509;-74
2022/12/07 01:50:28;;;;;;;19.57;16.00;;;;;;;40.70;39.01;100878.06;6243903;22;20885;-74
2022/12/07 01:52:56;;;;;;;26.33;15.53;;;;;;;40.68;39.01;100868.59;6275999;22;20453;-74
2022/12/07 01:55:22;;;;;;;22.43;12.27;;;;;;;40.96;38.64;100869.81;6274197;22;20385;-75
2022/12/07 01:57:52;;;;;;;19.00;14.57;;;;;;;41.22;38.24;100866.94;6274234;22;20471;-75
2022/12/07 02:00:18;;;;;;;18.30;13.73;;;;;;;41.26;37.83;100865.19;6274225;22;20382;-74
2022/12/07 02:02:53;;;;;;;34.27;15.10;;;;;;;41.04;38.16;100854.56;6274101;22;20382;-73
2022/12/07 02:05:19;;;;;;;24.53;14.90;;;;;;;41.37;37.50;100862.88;6274292;22;20391;-74
2022/12/07 02:07:47;;;;;;;19.07;14.10;;;;;;;40.71;38.85;100854.38;6273912;22;20435;-75
2022/12/07 02:10:18;;;;;;;20.77;13.30;;;;;;;40.73;38.78;100855.63;6274657;22;20461;-76
2022/12/07 02:12:48;;;;;;;45.20;41.50;;;;;;;41.10;37.83;100849.72;6273964;22;20385;-75
2022/12/07 02:15:14;;;;;;;20.90;14.37;;;;;;;41.03;38.25;100850.25;6276108;22;20362;-75
2022/12/07 02:18:03;;;;;;;16.63;13.57;;;;;;;41.31;38.02;100851.38;6274074;22;20378;-75
2022/12/07 02:20:40;;;;;;;26.17;16.50;;;;;;;41.16;38.04;100851.13;6204388;22;20451;-76
2022/12/07 02:23:25;;;;;;;19.37;14.47;;;;;;;40.86;38.50;100844.84;6274000;22;20492;-73
2022/12/07 02:26:03;;;;;;;28.13;15.90;;;;;;;40.75;38.55;100847.13;6275427;22;20369;-73
2022/12/07 02:29:06;;;;;;;21.97;13.23;;;;;;;40.96;38.51;100842.59;6277966;22;20447;-73
2022/12/07 02:31:32;;;;;;;19.30;12.93;;;;;;;40.96;38.74;100839.88;6276258;22;20425;-73
2022/12/07 02:34:06;;;;;;;28.63;16.40;;;;;;;40.55;39.06;100844.00;6278104;22;20479;-74
2022/12/07 02:36:39;;;;;;;22.57;13.87;;;;;;;40.61;39.14;100839.19;6276185;22;20914;-74
2022/12/07 02:39:14;;;;;;;20.27;14.43;;;;;;;40.57;39.33;100838.25;6276152;22;20775;-74
2022/12/07 02:41:50;;;;;;;25.37;13.00;;;;;;;40.44;39.13;100836.50;6277687;22;20439;-74
2022/12/07 02:44:21;;;;;;;21.93;12.50;;;;;;;40.42;39.58;100836.84;6225480;22;20387;-75
2022/12/07 02:46:54;;;;;;;16.00;12.33;;;;;;;41.10;38.27;100828.75;6277757;22;20397;-75
2022/12/07 02:49:23;;;;;;;20.90;13.00;;;;;;;40.45;39.32;100832.66;6250326;22;20425;-75
2022/12/07 02:51:49;;;;;;;35.57;14.40;;;;;;;40.80;38.98;100827.94;6250408;22;20876;-75
2022/12/07 02:54:18;;;;;;;22.37;14.60;;;;;;;40.75;38.39;100822.66;6250738;22;20854;-75
2022/12/07 02:56:48;;;;;;;18.73;14.57;;;;;;;40.79;38.41;100829.06;6250425;22;20416;-75
2022/12/07 02:59:26;;;;;;;24.87;13.67;;;;;;;40.48;39.26;100821.97;6278123;22;20358;-75
2022/12/07 03:02:10;;;;;;;24.20;15.60;;;;;;;40.93;38.07;100826.13;6250222;22;20737;-75
2022/12/07 03:04:54;;;;;;;26.47;13.63;;;;;;;40.02;40.09;100830.78;6250406;22;20385;-75
2022/12/07 03:07:57;;;;;;;17.80;13.47;;;;;;;40.23;39.22;100833.69;6250212;22;20438;-75
2022/12/07 03:10:40;;;;;;;27.70;14.50;;;;;;;40.13;39.86;100829.38;6250367;22;20460;-75
2022/12/07 03:13:20;;;;;;;24.00;14.70;;;;;;;40.45;38.92;100833.44;6277592;22;20425;-75
2022/12/07 03:16:07;;;;;;;22.70;15.47;;;;;;;40.41;39.56;100826.28;6250302;22;20395;-75
2022/12/07 03:18:49;;;;;;;30.43;15.30;;;;;;;40.49;39.08;100822.78;6250095;22;20382;-75
2022/12/07 03:21:20;;;;;;;19.47;13.40;;;;;;;40.86;38.50;100814.94;6250079;22;20413;-75
2022/12/07 03:23:51;;;;;;;24.77;13.27;;;;;;;40.80;37.95;100814.31;6277713;22;20370;-75
2022/12/07 03:26:19;;;;;;;23.53;13.90;;;;;;;41.09;37.94;100808.13;6250091;22;20393;-75
2022/12/07 03:28:55;;;;;;;29.83;16.53;;;;;;;41.05;37.69;100816.13;6250067;22;20459;-74
2022/12/07 03:31:31;;;;;;;23.03;14.83;;;;;;;40.21;39.35;100817.72;6277492;22;20360;-76
2022/12/07 03:34:40;;;;;;;21.60;13.10;;;;;;;40.94;38.18;100822.28;6277806;22;20350;-75
2022/12/07 03:37:17;;;;;;;38.37;17.53;;;;;;;40.94;38.17;100816.84;6234297;22;20472;-76
2022/12/07 03:40:18;;;;;;;19.83;13.47;;;;;;;40.59;38.76;100827.06;6277410;22;20365;-75
2022/12/07 03:42:44;;;;;;;22.60;13.70;;;;;;;41.09;37.74;100821.72;6271821;22;20441;-75
2022/12/07 03:45:11;;;;;;;23.90;14.87;;;;;;;41.21;37.92;100819.09;6275249;22;20850;-74
2022/12/07 03:47:47;;;;;;;33.00;14.27;;;;;;;41.23;37.58;100819.56;6275307;22;20392;-73
2022/12/07 03:50:45;;;;;;;26.93;14.93;;;;;;;41.11;37.80;100824.91;6275301;22;20403;-74
2022/12/07 03:53:41;;;;;;;26.73;13.90;;;;;;;40.41;38.26;100818.13;6274934;22;20432;-75
2022/12/07 03:56:08;;;;;;;25.53;15.73;;;;;;;40.34;38.20;100826.00;6272925;22;20417;-75
2022/12/07 03:58:35;;;;;;;19.30;11.70;;;;;;;40.60;37.91;100823.22;6275346;22;20461;-74
2022/12/07 04:01:01;;;;;;;20.23;14.33;;;;;;;40.60;38.43;100824.00;6275218;22;20440;-73
2022/12/07 04:03:27;;;;;;;23.03;13.63;;;;;;;40.92;37.85;100816.38;6275326;22;20384;-74
2022/12/07 04:05:54;;;;;;;20.27;14.60;;;;;;;40.94;37.67;100820.34;6277266;22;20366;-73
2022/12/07 04:08:20;;;;;;;19.90;12.57;;;;;;;40.96;37.96;100812.69;6277029;22;20456;-75
2022/12/07 04:10:46;;;;;;;24.50;12.43;;;;;;;40.78;38.11;100811.13;6275302;22;20378;-75
2022/12/07 04:13:11;;;;;;;25.73;15.80;;;;;;;40.67;38.21;100813.41;6275119;22;20386;-75
2022/12/07 04:15:37;;;;;;;18.77;14.10;;;;;;;41.03;37.86;100814.88;6275055;22;20406;-74
2022/12/07 04:18:03;;;;;;;14.70;12.90;;;;;;;41.05;37.56;100815.34;6275201;22;20377;-74
2022/12/07 04:20:29;;;;;;;23.67;14.70;;;;;;;40.80;37.93;100823.28;6275224;22;20204;-75
2022/12/07 04:22:55;;;;;;;18.03;13.90;;;;;;;40.89;37.94;100825.19;6274985;22;20386;-75
2022/12/07 04:25:21;;;;;;;16.47;14.13;;;;;;;40.74;37.93;100819.16;6277115;22;20449;-75
2022/12/07 04:27:47;;;;;;;19.37;14.40;;;;;;;40.44;38.36;100822.91;6275058;22;20425;-74
2022/12/07 04:30:13;;;;;;;22.93;13.60;;;;;;;41.07;37.22;100827.50;6274953;22;20393;-74
2022/12/07 04:32:39;;;;;;;27.27;14.60;;;;;;;41.00;37.41;100831.84;6275052;22;20490;-75
2022/12/07 04:35:05;;;;;;;33.93;15.70;;;;;;;41.19;37.15;100828.69;6275080;22;20700;-75
2022/12/07 04:37:31;;;;;;;22.80;12.00;;;;;;;40.92;37.33;100838.13;6274842;22;20405;-74
2022/12/07 04:39:57;;;;;;;22.87;15.03;;;;;;;40.80;37.18;100844.25;6275085;22;20382;-74
2022/12/07 04:42:23;;;;;;;19.83;14.27;;;;;;;40.44;37.67;100840.00;6274654;22;20837;-73
2022/12/07 04:44:50;;;;;;;21.13;13.70;;;;;;;40.69;37.22;100841.06;6274801;22;20384;-75
2022/12/07 04:47:16;;;;;;;22.57;13.60;;;;;;;40.83;37.06;100837.38;6274786;22;20592;-75
2022/12/07 04:49:42;;;;;;;22.60;13.20;;;;;;;40.86;37.32;100845.66;6274613;22;20483;-74
2022/12/07 04:52:08;;;;;;;23.77;15.33;;;;;;;40.86;37.24;100851.09;6274991;22;20410;-74
2022/12/07 04:54:34;;;;;;;26.37;17.60;;;;;;;40.99;37.41;100849.31;6276700;22;20362;-74
2022/12/07 04:57:00;;;;;;;25.43;21.83;;;;;;;41.18;37.23;100849.69;6275195;22;20403;-74
2022/12/07 04:59:26;;;;;;;32.97;19.13;;;;;;;41.24;37.10;100853.00;6274747;22;20737;-74
2022/12/07 05:01:52;;;;;;;26.77;20.10;;;;;;;41.00;37.54;100854.41;6274755;22;20229;-75
2022/12/07 05:04:18;;;;;;;35.83;20.40;;;;;;;40.73;38.20;100858.34;6275077;22;20423;-75
2022/12/07 05:06:44;;;;;;;37.37;18.90;;;;;;;40.66;38.28;100863.50;6274708;22;20846;-75
2022/12/07 05:09:10;;;;;;;27.33;21.10;;;;;;;40.79;38.06;100862.50;6274577;22;20448;-74
2022/12/07 05:11:39;;;;;;;29.60;23.50;;;;;;;40.72;38.56;100864.91;6276707;22;20358;-75
2022/12/07 05:14:16;;;;;;;41.87;27.20;;;;;;;40.25;39.12;100867.56;6274594;22;20393;-75
2022/12/07 05:16:44;;;;;;;28.43;22.73;;;;;;;40.72;38.46;100870.34;6274686;22;20417;-75
2022/12/07 05:19:10;;;;;;;34.53;24.87;;;;;;;40.01;39.72;100878.91;6276536;22;20365;-75
2022/12/07 05:21:37;;;;;;;35.00;25.83;;;;;;;40.32;39.03;100879.84;6274602;22;20412;-75
2022/12/07 05:24:04;;;;;;;26.43;22.80;;;;;;;40.35;39.15;100877.31;6274508;22;20886;-75
2022/12/07 05:26:30;;;;;;;30.17;22.37;;;;;;;40.68;38.67;100869.41;6274095;22;20381;-75
2022/12/07 05:28:57;;;;;;;25.87;22.70;;;;;;;40.22;39.22;100878.28;6274546;22;20425;-75
2022/12/07 05:31:24;;;;;;;37.10;24.80;;;;;;;40.35;39.13;100874.59;6274144;22;20421;-73
2022/12/07 05:33:51;;;;;;;32.97;26.67;;;;;;;40.62;38.46;100870.69;6274519;22;20737;-74
2022/12/07 05:36:17;;;;;;;33.40;26.97;;;;;;;40.59;38.53;100873.28;6274474;22;20436;-74
2022/12/07 05:38:43;;;;;;;34.03;26.23;;;;;;;40.80;38.42;100877.69;6274001;22;20385;-74
2022/12/07 05:42:11;;;;;;;34.03;25.70;;;;;;;40.62;38.55;100872.63;6273960;22;20532;-73
2022/12/07 05:43:58;;;;;;;37.97;23.87;;;;;;;40.14;39.17;100874.44;6275749;22;20385;-74
2022/12/07 05:46:24;;;;;;;32.17;25.97;;;;;;;40.43;38.88;100872.97;6276051;22;20370;-74
2022/12/07 05:48:50;;;;;;;40.97;26.80;;;;;;;40.50;38.80;100876.00;6274206;22;20527;-74
2022/12/07 05:51:16;;;;;;;44.27;32.17;;;;;;;40.21;39.41;100879.41;6276430;22;20358;-74
2022/12/07 05:53:42;;;;;;;32.10;27.30;;;;;;;40.33;39.12;100878.72;6274363;22;20377;-74
2022/12/07 05:56:08;;;;;;;49.80;29.70;;;;;;;40.44;38.79;100883.50;6276157;22;20389;-73
2022/12/07 06:01:18;;;;;;;35.03;27.83;;;;;;;39.94;39.75;100886.72;6276004;22;20418;-73
2022/12/07 06:03:45;;;;;;;35.50;23.53;;;;;;;40.10;39.75;100889.00;6276328;22;20870;-74
2022/12/07 06:06:11;;;;;;;36.70;23.93;;;;;;;40.33;39.48;100890.44;6276161;22;20706;-74
2022/12/07 06:08:37;;;;;;;35.33;24.50;;;;;;;40.69;38.75;100886.50;6276182;22;20894;-74
2022/12/07 06:13:49;;;;;;;37.03;26.63;;;;;;;40.51;39.20;100891.19;6275649;22;20406;-73
2022/12/07 06:16:15;;;;;;;31.50;25.17;;;;;;;40.72;39.05;100903.00;6273855;22;20479;-73
2022/12/07 06:18:41;;;;;;;37.90;26.10;;;;;;;40.32;39.12;100905.13;6275909;22;20354;-73
2022/12/07 06:21:07;;;;;;;35.63;28.77;;;;;;;40.04;39.94;100910.09;6273930;22;20456;-72
2022/12/07 06:23:33;;;;;;;36.00;27.43;;;;;;;40.41;39.09;100914.06;6273733;22;20397;-74
2022/12/07 06:25:59;;;;;;;45.47;27.23;;;;;;;40.57;38.85;100919.81;6273868;22;20384;-72
2022/12/07 06:28:25;;;;;;;41.80;30.53;;;;;;;40.28;39.07;100915.84;6273228;22;20425;-73
2022/12/07 06:30:58;;;;;;;52.40;31.10;;;;;;;40.53;39.02;100924.31;6273586;22;20388;-72
2022/12/07 06:33:25;;;;;;;39.10;28.33;;;;;;;40.68;38.86;100926.50;6273521;22;20911;-73
2022/12/07 06:35:51;;;;;;;38.87;30.20;;;;;;;40.69;38.40;100930.81;6272216;22;20377;-80
2022/12/07 06:38:17;;;;;;;47.73;31.73;;;;;;;40.69;38.73;100930.03;6274765;22;20377;-72
2022/12/07 06:40:43;;;;;;;38.67;31.53;;;;;;;40.73;38.14;100925.53;6272700;22;20382;-73
2022/12/07 06:43:09;;;;;;;45.10;30.27;;;;;;;40.76;38.43;100941.19;6247236;22;21058;-73
2022/12/07 06:45:35;;;;;;;45.50;30.07;;;;;;;40.79;38.08;100935.94;6245842;22;20424;-74
2022/12/07 06:48:01;;;;;;;39.57;29.03;;;;;;;40.14;39.34;100944.28;6245097;22;20490;-75
2022/12/07 06:50:27;;;;;;;37.07;29.23;;;;;;;40.17;39.22;100936.31;6246232;22;20443;-75
2022/12/07 06:52:53;;;;;;;44.77;29.10;;;;;;;40.46;38.59;100948.44;6245952;22;20377;-75
2022/12/07 06:55:19;;;;;;;41.70;27.97;;;;;;;40.07;39.72;100941.25;6246192;22;20373;-75
2022/12/07 06:57:45;;;;;;;44.47;30.60;;;;;;;40.45;39.39;100953.06;6273451;22;20364;-75
2022/12/07 07:00:11;;;;;;;40.97;31.47;;;;;;;39.18;41.51;100960.31;6247893;22;20370;-74
2022/12/07 07:02:37;;;;;;;41.63;31.83;;;;;;;39.35;40.95;100954.16;6246634;22;20857;-74
2022/12/07 07:05:03;;;;;;;44.20;30.90;;;;;;;40.14;39.50;100968.75;6248108;22;20370;-78
2022/12/07 07:07:29;;;;;;;35.30;30.80;;;;;;;40.27;39.70;100952.31;6248593;22;20385;-78
2022/12/07 07:09:55;;;;;;;60.20;30.80;;;;;;;40.24;39.23;100963.81;6248777;22;20381;-77
2022/12/07 07:12:21;;;;;;;44.27;32.43;;;;;;;39.55;40.93;100965.56;6250144;22;20462;-77
2022/12/07 07:14:47;;;;;;;43.77;33.70;;;;;;;39.35;41.38;100975.06;6250091;22;20381;-74
2022/12/07 07:17:13;;;;;;;47.00;35.57;;;;;;;40.16;39.90;100971.97;6249792;22;20370;-74
2022/12/07 07:19:39;;;;;;;58.17;40.43;;;;;;;39.30;41.36;100965.16;6225017;22;20480;-74
2022/12/07 07:22:05;;;;;;;47.83;32.57;;;;;;;39.33;41.45;100964.53;6250537;22;20843;-74
2022/12/07 07:24:31;;;;;;;61.93;34.03;;;;;;;39.55;41.14;100973.72;6277232;22;20416;-75
2022/12/07 07:26:57;;;;;;;53.63;33.33;;;;;;;39.10;42.07;100982.75;6247933;22;20696;-74
2022/12/07 07:29:23;;;;;;;45.53;29.50;;;;;;;39.84;40.92;100976.69;6249177;22;20921;-83
2022/12/07 07:31:49;;;;;;;39.10;29.57;;;;;;;40.03;40.21;100984.56;6250427;22;20469;-76
2022/12/07 07:34:15;;;;;;;42.40;31.80;;;;;;;39.84;40.36;100987.56;6248740;22;20401;-75
2022/12/07 07:36:41;;;;;;;50.37;35.27;;;;;;;40.33;39.73;100999.16;6248546;22;20836;-72
2022/12/07 07:39:07;;;;;;;45.90;29.87;;;;;;;40.66;39.05;100995.94;6249723;22;20851;-72
2022/12/07 07:41:33;;;;;;;41.40;30.23;;;;;;;40.92;38.38;100990.50;6256851;22;20444;-72
2022/12/07 07:43:59;;;;;;;41.23;29.40;;;;;;;40.64;39.13;100985.41;6277458;22;20370;-73
2022/12/07 07:46:24;;;;;;;46.07;29.30;;;;;;;41.03;38.26;100999.91;6277394;22;20453;-72
2022/12/07 07:48:50;;;;;;;36.67;30.40;;;;;;;40.00;39.58;101004.97;6249744;22;20261;-73
2022/12/07 07:51:16;;;;;;;44.10;28.03;;;;;;;39.80;40.87;101002.88;6276955;22;20439;-75
2022/12/07 07:53:42;;;;;;;33.10;25.30;;;;;;;40.17;40.06;101000.72;6275738;22;20381;-73
2022/12/07 07:56:08;;;;;;;45.83;27.20;;;;;;;40.60;39.34;101002.69;6275405;22;20398;-73
2022/12/07 07:58:35;;;;;;;40.23;27.53;;;;;;;40.24;39.84;101009.22;6275336;22;20401;-73
2022/12/07 08:01:08;;;;;;;37.70;23.93;;;;;;;40.91;38.71;101007.94;6275277;22;20155;-73
2022/12/07 08:03:34;;;;;;;35.73;25.20;;;;;;;40.67;38.98;101011.94;6275268;22;20393;-72
2022/12/07 08:06:03;;;;;;;37.53;25.23;;;;;;;40.49;39.32;101026.66;6248840;22;20385;-72
2022/12/07 08:08:29;;;;;;;34.23;24.20;;;;;;;40.34;39.40;101019.78;6274768;22;20433;-72
2022/12/07 08:10:55;;;;;;;36.53;21.43;;;;;;;38.87;42.18;101024.59;6275456;22;20846;-72
2022/12/07 08:13:21;;;;;;;38.87;22.77;;;;;;;39.64;41.20;101021.50;6274778;22;20381;-74
2022/12/07 08:15:48;;;;;;;33.40;27.77;;;;;;;39.75;40.81;101025.53;6274244;22;20385;-72
2022/12/07 08:18:15;;;;;;;34.57;22.47;;;;;;;40.33;39.94;101025.50;6275905;22;20445;-72
2022/12/07 08:20:42;;;;;;;37.47;23.90;;;;;;;40.84;38.86;101026.66;6273861;22;20381;-72
2022/12/07 08:23:09;;;;;;;40.50;24.17;;;;;;;40.40;38.95;101023.94;6273077;22;20734;-72
2022/12/07 08:25:35;;;;;;;30.00;24.17;;;;;;;40.07;39.71;101018.13;6274210;22;20373;-72
2022/12/07 08:28:01;;;;;;;35.60;21.63;;;;;;;40.09;39.53;101028.69;6274017;22;20441;-73
2022/12/07 08:30:28;;;;;;;34.27;22.83;;;;;;;40.40;39.13;101028.56;6274690;22;20877;-73
2022/12/07 08:32:54;;;;;;;32.43;21.33;;;;;;;40.81;38.12;101031.59;6274769;22;20405;-72
2022/12/07 08:35:20;;;;;;;43.40;21.70;;;;;;;41.34;37.41;101027.69;6275049;22;20488;-74
2022/12/07 08:37:46;;;;;;;33.43;27.20;;;;;;;41.48;37.25;101029.38;6274985;22;20442;-74
2022/12/07 08:40:18;;;;;;;34.37;23.83;;;;;;;41.48;36.68;101032.91;6274865;22;20385;-73
2022/12/07 08:42:49;;;;;;;35.97;22.73;;;;;;;41.81;37.00;101035.84;6274708;22;21002;-74
2022/12/07 08:45:16;;;;;;;39.93;25.30;;;;;;;41.97;36.29;101043.41;6276964;22;20721;-75
2022/12/07 08:48:06;;;;;;;25.00;18.70;;;;;;;42.03;35.92;101042.91;6274208;22;20385;-73
2022/12/07 08:50:34;;;;;;;36.73;19.27;;;;;;;42.08;35.97;101034.53;6274458;22;20381;-73
2022/12/07 08:53:00;;;;;;;22.80;17.57;;;;;;;42.15;35.77;101042.19;6276600;22;20358;-73
2022/12/07 08:55:28;;;;;;;25.50;16.87;;;;;;;42.29;35.79;101045.47;6276169;22;20397;-73
2022/12/07 08:57:55;;;;;;;28.23;18.40;;;;;;;42.56;34.85;101049.59;6274875;22;20904;-73
2022/12/07 09:00:21;;;;;;;37.43;21.70;;;;;;;42.34;35.23;101053.44;6274665;22;20733;-73
2022/12/07 09:02:47;;;;;;;29.03;17.57;;;;;;;42.12;35.78;101057.28;6274691;22;20381;-74
2022/12/07 09:05:16;;;;;;;26.97;16.90;;;;;;;42.55;34.82;101055.38;6274036;22;20726;-72
2022/12/07 09:07:46;;;;;;;28.13;16.20;;;;;;;42.48;34.96;101055.94;6274504;22;20742;-74
2022/12/07 09:10:12;;;;;;;38.57;19.07;;;;;;;42.36;35.48;101062.13;6274358;22;20831;-73
2022/12/07 09:12:38;;;;;;;25.10;17.80;;;;;;;42.46;35.21;101068.28;6274630;22;20382;-74
2022/12/07 09:15:04;;;;;;;36.47;21.53;;;;;;;42.57;34.81;101070.31;6274441;22;20405;-72
2022/12/07 09:17:33;;;;;;;31.47;20.00;;;;;;;42.46;34.96;101071.81;6274139;22;20377;-73
2022/12/07 09:20:00;;;;;;;35.17;19.90;;;;;;;42.57;35.26;101077.66;6274390;22;20451;-73
2022/12/07 09:22:30;;;;;;;27.20;18.80;;;;;;;42.63;35.00;101081.81;6273940;22;20400;-75
2022/12/07 09:24:57;;;;;;;41.97;23.07;;;;;;;42.32;35.09;101082.19;6274061;22;20732;-73
2022/12/07 09:27:24;;;;;;;27.73;18.17;;;;;;;42.51;35.00;101076.28;6274370;22;20494;-74
2022/12/07 09:29:50;;;;;;;30.33;18.83;;;;;;;42.73;34.46;101081.41;6274288;22;20431;-75
2022/12/07 09:32:16;;;;;;;31.03;17.80;;;;;;;42.52;35.32;101077.84;6274447;22;20378;-75
2022/12/07 09:34:42;;;;;;;33.67;19.43;;;;;;;42.79;34.61;101079.28;6274521;22;20379;-75
2022/12/07 09:37:08;;;;;;;25.40;17.53;;;;;;;42.36;35.22;101083.94;6274418;22;20445;-75
2022/12/07 09:39:34;;;;;;;23.93;18.40;;;;;;;42.63;34.83;101073.63;6274346;22;20504;-74
2022/12/07 09:42:04;;;;;;;35.27;17.67;;;;;;;42.35;34.95;101081.50;6273862;22;20433;-74
2022/12/07 09:44:32;;;;;;;25.37;17.87;;;;;;;42.44;34.34;101070.56;6276350;22;20847;-74
2022/12/07 09:46:59;;;;;;;31.27;16.77;;;;;;;42.51;34.41;101073.53;6272999;22;20370;-73
2022/12/07 09:49:29;;;;;;;24.90;16.50;;;;;;;42.37;34.60;101076.53;6273800;22;20967;-73
2022/12/07 09:52:07;;;;;;;20.30;17.73;;;;;;;42.48;34.92;101076.91;6273826;22;20366;-73
2022/12/07 09:54:36;;;;;;;26.37;18.07;;;;;;;42.57;34.65;101066.75;6274135;22;20397;-74
2022/12/07 09:57:03;;;;;;;24.97;14.90;;;;;;;42.26;34.69;101062.50;6274263;22;20400;-73
2022/12/07 09:59:29;;;;;;;22.13;16.00;;;;;;;42.43;34.59;101055.34;6274333;22;20369;-73
2022/12/07 10:01:55;;;;;;;21.73;14.73;;;;;;;42.19;34.89;101056.78;6274265;22;20456;-73
2022/12/07 10:04:25;;;;;;;21.90;16.33;;;;;;;42.63;34.52;101051.81;6274125;22;20728;-75
2022/12/07 10:06:51;;;;;;;27.77;16.90;;;;;;;42.47;35.11;101057.03;6274288;22;20376;-75
2022/12/07 10:09:21;;;;;;;34.33;14.90;;;;;;;41.76;35.91;101048.84;6273957;22;20420;-73
2022/12/07 10:12:11;;;;;;;26.97;17.20;;;;;;;42.27;35.29;101047.72;6274147;22;20366;-73
2022/12/07 10:14:55;;;;;;;21.47;14.53;;;;;;;42.58;34.87;101043.81;6273993;22;20384;-73
2022/12/07 10:17:39;;;;;;;20.30;15.80;;;;;;;42.84;34.43;101044.38;6274096;22;20464;-74
2022/12/07 10:20:11;;;;;;;20.17;15.03;;;;;;;42.54;34.55;101046.41;6276422;22;20803;-74
2022/12/07 10:22:38;;;;;;;24.83;14.50;;;;;;;42.38;34.57;101045.41;6273922;22;20377;-74
2022/12/07 10:25:22;;;;;;;26.60;15.33;;;;;;;42.56;34.48;101041.41;6274235;22;20374;-74
2022/12/07 10:28:12;;;;;;;18.80;13.53;;;;;;;42.25;34.91;101035.56;6273990;22;20838;-74
2022/12/07 10:30:53;;;;;;;19.10;11.83;;;;;;;42.44;34.90;101035.09;6273992;22;20421;-73
2022/12/07 10:33:35;;;;;;;20.90;12.80;;;;;;;42.37;34.99;101033.72;6274194;22;20382;-73
2022/12/07 10:36:20;;;;;;;22.13;13.40;;;;;;;42.10;35.70;101032.25;6273869;22;20389;-73
2022/12/07 10:38:53;;;;;;;16.63;13.33;;;;;;;42.61;35.00;101046.69;6273807;22;20407;-74
2022/12/07 10:41:19;;;;;;;22.43;15.20;;;;;;;42.62;34.57;101040.09;6273804;22;20535;-76
2022/12/07 10:43:52;;;;;;;25.23;16.10;;;;;;;42.50;34.88;101031.03;6273821;22;20382;-74
2022/12/07 10:46:24;;;;;;;21.13;15.40;;;;;;;42.72;34.78;101030.69;6275045;22;20378;-74
2022/12/07 10:49:16;;;;;;;25.10;14.97;;;;;;;42.71;34.74;101031.81;6275999;22;20432;-74
2022/12/07 10:52:03;;;;;;;24.03;13.70;;;;;;;42.58;35.00;101016.56;6274509;22;20977;-75
2022/12/07 10:54:47;;;;;;;24.03;14.03;;;;;;;42.56;34.87;101014.13;6275334;22;20380;-74
2022/12/07 10:57:24;;;;;;;25.47;14.77;;;;;;;42.83;34.33;101015.50;6275774;22;20408;-75
2022/12/07 11:00:22;;;;;;;18.60;14.67;;;;;;;42.81;34.60;101011.53;6276054;22;20373;-76
2022/12/07 11:02:54;;;;;;;34.53;17.40;;;;;;;41.98;35.82;101002.22;6274280;22;20422;-75
2022/12/07 11:05:45;;;;;;;24.63;15.07;;;;;;;42.76;34.83;101009.00;6275578;22;20368;-76
2022/12/07 11:08:30;;;;;;;22.60;15.67;;;;;;;42.40;35.42;100996.78;6273478;22;20439;-76
2022/12/07 11:11:02;;;;;;;15.90;12.23;;;;;;;42.49;35.28;100992.06;6273690;22;20388;-76
2022/12/07 11:14:15;;;;;;;24.27;16.10;;;;;;;42.57;34.93;100996.66;6275485;22;20346;-74
2022/12/07 11:16:50;;;;;;;24.27;14.93;;;;;;;42.54;35.35;100980.94;6260623;22;20421;-74
2022/12/07 11:19:33;;;;;;;32.57;14.43;;;;;;;42.40;35.29;100986.69;6275789;22;20380;-76
2022/12/07 11:22:03;;;;;;;22.03;14.60;;;;;;;43.13;34.35;100994.31;6275391;22;20416;-75
2022/12/07 11:24:58;;;;;;;19.70;15.47;;;;;;;42.38;35.25;100988.94;6275580;22;20383;-74
2022/12/07 11:27:36;;;;;;;22.90;14.03;;;;;;;42.57;35.19;100966.66;6225213;22;20382;-75
2022/12/07 11:30:34;;;;;;;35.37;16.33;;;;;;;42.82;34.83;100958.53;6275508;22;20786;-78